createdAt,value
2023-08-21T00:01:03.821Z,19.60
2023-08-21T00:03:35.624Z,19.60
2023-08-21T00:06:04.581Z,19.60
2023-08-21T00:08:33.601Z,19.60
2023-08-21T00:11:02.157Z,19.60
2023-08-21T00:13:30.987Z,19.60
2023-08-21T00:15:59.518Z,19.50
2023-08-21T00:18:28.333Z,19.50
2023-08-21T00:20:58.398Z,19.50
2023-08-21T00:23:27.335Z,19.40
2023-08-21T00:25:56.537Z,19.40
2023-08-21T00:28:25.336Z,19.40
2023-08-21T00:30:53.905Z,19.40
2023-08-21T00:33:22.967Z,19.40
2023-08-21T00:35:51.810Z,19.30
2023-08-21T00:38:22.349Z,19.30
2023-08-21T00:40:51.123Z,19.30
2023-08-21T00:43:20.044Z,19.20
2023-08-21T00:45:50.475Z,19.30
2023-08-21T00:48:20.161Z,19.20
2023-08-21T00:50:50.079Z,19.20
2023-08-21T00:53:18.605Z,19.10
2023-08-21T00:55:49.249Z,19.10
2023-08-21T00:58:19.350Z,19.10
2023-08-21T01:00:50.628Z,19.10
2023-08-21T01:03:23.216Z,19.10
2023-08-21T01:05:52.165Z,19.20
2023-08-21T01:08:28.921Z,19.20
2023-08-21T01:11:05.235Z,19.20
2023-08-21T01:13:46.826Z,19.20
2023-08-21T01:16:21.093Z,19.20
2023-08-21T01:18:51.330Z,19.20
2023-08-21T01:21:20.584Z,19.20
2023-08-21T01:23:50.778Z,19.10
2023-08-21T01:26:19.503Z,19.10
2023-08-21T01:28:48.154Z,19.10
2023-08-21T01:31:21.856Z,19.10
2023-08-21T01:33:55.804Z,19.10
2023-08-21T01:36:25.536Z,19.10
2023-08-21T01:38:55.985Z,19.00
2023-08-21T01:41:26.961Z,18.90
2023-08-21T01:43:56.857Z,18.90
2023-08-21T01:46:25.602Z,18.80
2023-08-21T01:48:55.593Z,18.80
2023-08-21T01:51:24.452Z,18.80
2023-08-21T01:53:55.718Z,18.80
2023-08-21T01:56:24.510Z,18.80
2023-08-21T01:58:52.851Z,18.60
2023-08-21T02:01:21.733Z,18.50
2023-08-21T02:03:50.555Z,18.50
2023-08-21T02:06:19.725Z,18.40
2023-08-21T02:08:48.798Z,18.40
2023-08-21T02:11:22.133Z,18.50
2023-08-21T02:13:51.360Z,18.50
2023-08-21T02:16:21.818Z,18.50
2023-08-21T02:18:50.889Z,18.60
2023-08-21T02:21:20.446Z,18.50
2023-08-21T02:23:49.446Z,18.50
2023-08-21T02:26:21.242Z,18.50
2023-08-21T02:28:49.852Z,18.60
2023-08-21T02:31:20.431Z,18.50
2023-08-21T02:33:49.192Z,18.40
2023-08-21T02:36:18.174Z,18.40
2023-08-21T02:38:47.984Z,18.40
2023-08-21T02:41:18.152Z,18.40
2023-08-21T02:43:49.201Z,18.40
2023-08-21T02:46:18.886Z,18.40
2023-08-21T02:48:47.938Z,18.40
2023-08-21T02:51:16.434Z,18.40
2023-08-21T02:53:45.200Z,18.40
2023-08-21T02:56:14.001Z,18.40
2023-08-21T02:58:42.929Z,18.40
2023-08-21T03:01:13.580Z,18.40
2023-08-21T03:03:42.298Z,18.40
2023-08-21T03:06:11.003Z,18.30
2023-08-21T03:08:39.832Z,18.30
2023-08-21T03:11:08.575Z,18.30
2023-08-21T03:13:37.457Z,18.30
2023-08-21T03:16:06.285Z,18.30
2023-08-21T03:18:58.199Z,18.20
2023-08-21T03:21:28.352Z,18.20
2023-08-21T03:24:00.625Z,18.20
2023-08-21T03:26:31.570Z,18.10
2023-08-21T03:29:01.548Z,18.00
2023-08-21T03:31:32.783Z,18.00
2023-08-21T03:34:01.115Z,17.90
2023-08-21T03:36:33.997Z,18.00
2023-08-21T03:39:03.719Z,17.90
2023-08-21T03:41:34.082Z,17.90
2023-08-21T03:44:04.361Z,17.90
2023-08-21T03:46:33.312Z,17.80
2023-08-21T03:49:02.407Z,17.80
2023-08-21T03:51:32.889Z,17.80
2023-08-21T03:54:02.095Z,17.70
2023-08-21T03:56:31.315Z,17.80
2023-08-21T03:59:00.201Z,17.70
2023-08-21T04:01:29.634Z,17.60
2023-08-21T04:03:58.562Z,17.60
2023-08-21T04:06:29.539Z,17.60
2023-08-21T04:09:02.010Z,17.60
2023-08-21T04:11:31.490Z,17.60
2023-08-21T04:14:00.368Z,17.60
2023-08-21T04:16:29.433Z,17.50
2023-08-21T04:18:58.265Z,17.60
2023-08-21T04:21:29.395Z,17.60
2023-08-21T04:23:59.867Z,17.60
2023-08-21T04:26:28.515Z,17.60
2023-08-21T04:28:57.092Z,17.50
2023-08-21T04:31:25.614Z,17.50
2023-08-21T04:33:54.296Z,17.40
2023-08-21T04:36:23.129Z,17.40
2023-08-21T04:38:51.933Z,17.40
2023-08-21T04:41:22.245Z,17.40
2023-08-21T04:43:50.701Z,17.40
2023-08-21T04:46:21.279Z,17.40
2023-08-21T04:48:50.187Z,17.30
2023-08-21T04:51:19.192Z,17.30
2023-08-21T04:53:48.270Z,17.30
2023-08-21T04:56:18.489Z,17.30
2023-08-21T04:58:49.021Z,17.30
2023-08-21T05:01:17.747Z,17.30
2023-08-21T05:03:47.547Z,17.30
2023-08-21T05:06:16.784Z,17.30
2023-08-21T05:08:45.650Z,17.30
2023-08-21T05:11:18.760Z,17.30
2023-08-21T05:13:49.380Z,17.30
2023-08-21T05:16:17.883Z,17.30
2023-08-21T05:18:47.826Z,17.20
2023-08-21T05:21:17.564Z,17.30
2023-08-21T05:23:49.824Z,17.40
2023-08-21T05:26:18.834Z,17.40
2023-08-21T05:28:49.560Z,17.40
2023-08-21T05:31:18.466Z,17.40
2023-08-21T05:33:47.108Z,17.50
2023-08-21T05:36:16.065Z,17.60
2023-08-21T05:38:45.998Z,17.60
2023-08-21T05:41:15.660Z,17.60
2023-08-21T05:43:44.894Z,17.60
2023-08-21T05:46:14.993Z,17.60
2023-08-21T05:48:44.122Z,17.70
2023-08-21T05:51:12.857Z,17.70
2023-08-21T05:53:42.264Z,17.80
2023-08-21T05:56:10.985Z,17.80
2023-08-21T05:58:41.054Z,17.80
2023-08-21T06:01:10.211Z,17.90
2023-08-21T06:03:41.688Z,18.00
2023-08-21T06:06:10.387Z,18.10
2023-08-21T06:08:41.589Z,18.10
2023-08-21T06:11:10.524Z,18.20
2023-08-21T06:13:39.441Z,18.30
2023-08-21T06:16:08.575Z,18.30
2023-08-21T06:18:37.203Z,18.40
2023-08-21T06:21:07.217Z,18.50
2023-08-21T06:23:35.656Z,18.70
2023-08-21T06:26:04.748Z,18.70
2023-08-21T06:28:33.721Z,18.70
2023-08-21T06:31:04.654Z,18.80
2023-08-21T06:33:36.489Z,18.80
2023-08-21T06:36:07.326Z,18.90
2023-08-21T06:38:37.874Z,19.00
2023-08-21T06:41:10.892Z,19.00
2023-08-21T06:43:44.981Z,19.00
2023-08-21T06:46:14.827Z,19.10
2023-08-21T06:48:44.299Z,19.10
2023-08-21T06:51:17.970Z,19.20
2023-08-21T06:53:46.864Z,19.30
2023-08-21T06:56:15.470Z,19.40
2023-08-21T06:58:44.592Z,19.40
2023-08-21T07:01:13.261Z,19.50
2023-08-21T07:03:42.408Z,19.60
2023-08-21T07:06:10.634Z,19.60
2023-08-21T07:08:41.869Z,19.70
2023-08-21T07:11:11.382Z,19.80
2023-08-21T07:13:40.479Z,19.90
2023-08-21T07:16:10.732Z,19.90
2023-08-21T07:18:42.510Z,20.00
2023-08-21T07:21:26.428Z,20.10
2023-08-21T07:24:01.384Z,20.20
2023-08-21T07:26:30.254Z,20.20
2023-08-21T07:28:59.283Z,20.30
2023-08-21T07:31:30.038Z,20.40
2023-08-21T07:33:59.141Z,20.60
2023-08-21T07:36:29.980Z,20.50
2023-08-21T07:39:00.663Z,20.80
2023-08-21T07:41:30.328Z,20.80
2023-08-21T07:43:59.345Z,20.80
2023-08-21T07:46:28.285Z,20.90
2023-08-21T07:48:57.245Z,21.00
2023-08-21T07:51:26.184Z,21.10
2023-08-21T07:53:55.177Z,21.10
2023-08-21T07:56:26.040Z,21.30
2023-08-21T07:58:54.987Z,21.30
2023-08-21T08:01:25.704Z,21.40
2023-08-21T08:03:54.565Z,21.50
2023-08-21T08:06:24.389Z,21.50
2023-08-21T08:08:53.130Z,21.60
2023-08-21T08:11:22.224Z,21.60
2023-08-21T08:13:52.756Z,21.70
2023-08-21T08:16:23.095Z,21.80
2023-08-21T08:18:51.735Z,21.80
2023-08-21T08:21:20.640Z,21.90
2023-08-21T08:23:51.620Z,22.00
2023-08-21T08:26:20.268Z,22.10
2023-08-21T08:28:49.361Z,22.10
2023-08-21T08:31:20.397Z,22.10
2023-08-21T08:33:49.402Z,22.10
2023-08-21T08:36:20.062Z,22.20
2023-08-21T08:38:49.593Z,22.30
2023-08-21T08:41:29.489Z,22.50
2023-08-21T08:44:00.467Z,22.50
2023-08-21T08:46:32.885Z,22.70
2023-08-21T08:49:02.740Z,22.80
2023-08-21T08:51:34.677Z,23.00
2023-08-21T08:54:04.125Z,23.20
2023-08-21T08:56:33.072Z,23.30
2023-08-21T08:59:01.662Z,23.50
2023-08-21T09:01:31.996Z,23.70
2023-08-21T09:04:00.876Z,23.90
2023-08-21T09:06:30.320Z,24.10
2023-08-21T09:08:59.920Z,24.40
2023-08-21T09:11:29.474Z,24.30
2023-08-21T09:13:58.524Z,24.30
2023-08-21T09:16:28.261Z,24.30
2023-08-21T09:18:59.242Z,24.70
2023-08-21T09:21:30.396Z,24.60
2023-08-21T09:24:02.178Z,24.60
2023-08-21T09:26:33.860Z,24.70
2023-08-21T09:29:06.439Z,24.70
2023-08-21T09:31:37.518Z,24.90
2023-08-21T09:34:10.574Z,25.20
2023-08-21T09:36:42.524Z,25.30
2023-08-21T09:39:18.896Z,24.90
2023-08-21T09:41:58.927Z,25.10
2023-08-21T09:44:28.005Z,25.00
2023-08-21T09:46:56.688Z,25.10
2023-08-21T09:49:27.494Z,25.30
2023-08-21T09:51:58.922Z,25.50
2023-08-21T09:54:28.156Z,25.70
2023-08-21T09:56:59.018Z,25.80
2023-08-21T09:59:28.155Z,26.20
2023-08-21T10:01:57.727Z,26.80
2023-08-21T10:04:31.142Z,27.20
2023-08-21T10:07:01.119Z,27.30
2023-08-21T10:09:31.426Z,27.30
2023-08-21T10:12:01.026Z,27.10
2023-08-21T10:14:30.184Z,27.00
2023-08-21T10:16:59.341Z,26.90
2023-08-21T10:19:35.044Z,26.90
2023-08-21T10:22:04.617Z,26.70
2023-08-21T10:24:39.003Z,26.60
2023-08-21T10:27:09.750Z,26.80
2023-08-21T10:29:46.213Z,26.70
2023-08-21T10:32:15.030Z,26.70
2023-08-21T10:34:54.981Z,27.00
2023-08-21T10:37:23.657Z,27.30
2023-08-21T10:40:01.410Z,27.30
2023-08-21T10:42:51.165Z,27.20
2023-08-21T10:45:22.453Z,27.40
2023-08-21T10:47:52.030Z,28.00
2023-08-21T10:50:22.957Z,27.90
2023-08-21T10:52:53.902Z,28.10
2023-08-21T10:55:22.940Z,28.40
2023-08-21T10:57:52.194Z,28.40
2023-08-21T11:00:21.858Z,27.70
2023-08-21T11:02:53.359Z,27.50
2023-08-21T11:05:24.012Z,27.40
2023-08-21T11:07:52.672Z,27.80
2023-08-21T11:10:26.921Z,27.90
2023-08-21T11:13:00.903Z,28.40
2023-08-21T11:15:31.459Z,28.40
2023-08-21T11:18:02.307Z,28.10
2023-08-21T11:20:33.577Z,27.80
2023-08-21T11:23:03.851Z,27.60
2023-08-21T11:25:33.856Z,27.60
2023-08-21T11:28:04.419Z,27.80
2023-08-21T11:30:34.492Z,27.80
2023-08-21T11:33:11.936Z,28.30
2023-08-21T11:35:43.287Z,28.60
2023-08-21T11:38:19.298Z,29.10
2023-08-21T11:40:55.312Z,29.80
2023-08-21T11:43:24.639Z,30.40
2023-08-21T11:45:59.129Z,30.50
2023-08-21T11:48:28.229Z,30.70
2023-08-21T11:50:58.310Z,30.80
2023-08-21T11:53:38.379Z,30.70
2023-08-21T11:56:13.126Z,30.50
2023-08-21T11:58:42.716Z,30.20
2023-08-21T12:01:12.922Z,29.40
2023-08-21T12:03:43.551Z,28.70
2023-08-21T12:06:15.401Z,28.60
2023-08-21T12:08:44.300Z,28.00
2023-08-21T12:11:13.691Z,28.10
2023-08-21T12:13:42.724Z,28.50
2023-08-21T12:16:11.362Z,28.60
2023-08-21T12:18:40.202Z,28.60
2023-08-21T12:21:09.442Z,28.20
2023-08-21T12:23:40.334Z,27.80
2023-08-21T12:26:08.987Z,28.10
2023-08-21T12:28:37.597Z,28.40
2023-08-21T12:31:06.638Z,28.90
2023-08-21T12:33:35.647Z,29.60
2023-08-21T12:36:04.754Z,29.80
2023-08-21T12:38:34.004Z,30.00
2023-08-21T12:41:04.483Z,29.70
2023-08-21T12:43:34.158Z,28.80
2023-08-21T12:46:03.206Z,28.90
2023-08-21T12:48:32.130Z,29.00
2023-08-21T12:51:00.854Z,28.80
2023-08-21T12:53:29.829Z,28.50
2023-08-21T12:56:00.549Z,28.70
2023-08-21T12:58:32.508Z,28.80
2023-08-21T13:01:01.481Z,29.20
2023-08-21T13:03:30.260Z,29.70
2023-08-21T13:05:58.828Z,30.20
2023-08-21T13:08:28.192Z,30.70
2023-08-21T13:10:56.493Z,30.90
2023-08-21T13:13:25.634Z,30.50
2023-08-21T13:15:56.356Z,30.70
2023-08-21T13:18:25.107Z,30.30
2023-08-21T13:20:53.804Z,30.30
2023-08-21T13:23:22.798Z,30.40
2023-08-21T13:25:51.475Z,30.30
2023-08-21T13:28:20.364Z,30.60
2023-08-21T13:30:49.501Z,30.60
2023-08-21T13:33:20.368Z,30.80
2023-08-21T13:35:49.070Z,30.90
2023-08-21T13:38:18.166Z,30.90
2023-08-21T13:40:50.217Z,31.00
2023-08-21T13:45:50.296Z,30.40
2023-08-21T13:48:20.375Z,30.50
2023-08-21T13:50:49.372Z,30.70
2023-08-21T13:53:20.089Z,31.20
2023-08-21T13:55:50.803Z,31.30
2023-08-21T13:58:19.947Z,31.20
2023-08-21T14:00:48.863Z,30.10
2023-08-21T14:03:18.041Z,29.20
2023-08-21T14:05:48.796Z,28.50
2023-08-21T14:08:17.343Z,28.60
2023-08-21T14:10:46.355Z,28.90
2023-08-21T14:13:15.627Z,29.20
2023-08-21T14:15:44.282Z,29.20
2023-08-21T14:18:13.160Z,29.40
2023-08-21T14:20:41.862Z,29.70
2023-08-21T14:23:11.805Z,30.00
2023-08-21T14:25:39.097Z,30.20
2023-08-21T14:28:08.782Z,30.40
2023-08-21T14:30:37.639Z,30.00
2023-08-21T14:33:07.117Z,30.10
2023-08-21T14:35:35.510Z,30.30
2023-08-21T14:38:04.897Z,30.40
2023-08-21T14:40:34.720Z,30.40
2023-08-21T14:43:04.232Z,30.30
2023-08-21T14:45:32.471Z,30.30
2023-08-21T14:48:01.085Z,30.20
2023-08-21T14:50:32.494Z,30.00
2023-08-21T14:53:01.313Z,29.90
2023-08-21T14:55:29.944Z,29.90
2023-08-21T14:58:00.218Z,29.70
2023-08-21T15:00:30.143Z,29.40
2023-08-21T15:02:58.882Z,29.00
2023-08-21T15:05:27.960Z,28.80
2023-08-21T15:07:57.146Z,28.70
2023-08-21T15:10:25.756Z,28.50
2023-08-21T15:12:54.586Z,28.10
2023-08-21T15:15:25.808Z,28.10
2023-08-21T15:17:54.815Z,28.10
2023-08-21T15:20:23.266Z,27.80
2023-08-21T15:22:52.459Z,27.80
2023-08-21T15:25:22.064Z,27.80
2023-08-21T15:27:51.459Z,27.50
2023-08-21T15:30:20.180Z,27.40
2023-08-21T15:32:51.534Z,27.20
2023-08-21T15:35:20.980Z,26.90
2023-08-21T15:37:50.536Z,26.80
2023-08-21T15:40:19.802Z,26.80
2023-08-21T15:42:48.317Z,26.80
2023-08-21T15:45:17.158Z,26.80
2023-08-21T15:47:49.238Z,26.60
2023-08-21T15:50:21.313Z,26.60
2023-08-21T15:52:51.073Z,26.60
2023-08-21T15:55:19.857Z,26.50
2023-08-21T15:57:48.517Z,26.50
2023-08-21T16:00:16.960Z,26.40
2023-08-21T16:02:45.841Z,26.40
2023-08-21T16:05:15.288Z,26.30
2023-08-21T16:07:46.156Z,26.30
2023-08-21T16:10:14.860Z,26.40
2023-08-21T16:12:43.732Z,26.30
2023-08-21T16:15:12.394Z,26.10
2023-08-21T16:17:41.270Z,26.10
2023-08-21T16:20:10.459Z,26.10
2023-08-21T16:22:39.968Z,26.10
2023-08-21T16:25:13.861Z,26.10
2023-08-21T16:27:45.424Z,26.20
2023-08-21T16:30:15.398Z,26.00
2023-08-21T16:32:44.046Z,26.00
2023-08-21T16:35:12.918Z,26.00
2023-08-21T16:37:42.791Z,26.10
2023-08-21T16:40:15.586Z,26.10
2023-08-21T16:42:44.317Z,26.00
2023-08-21T16:45:15.439Z,26.00
2023-08-21T16:47:46.813Z,26.00
2023-08-21T16:50:16.138Z,25.90
2023-08-21T16:52:45.082Z,25.70
2023-08-21T16:55:15.505Z,25.70
2023-08-21T16:57:45.631Z,25.70
2023-08-21T17:00:16.800Z,25.70
2023-08-21T17:02:46.035Z,25.60
2023-08-21T17:05:14.827Z,25.60
2023-08-21T17:07:45.769Z,25.60
2023-08-21T17:10:16.249Z,25.60
2023-08-21T17:12:46.673Z,25.50
2023-08-21T17:15:16.762Z,25.40
2023-08-21T17:17:45.969Z,25.40
2023-08-21T17:20:15.192Z,25.40
2023-08-21T17:22:43.905Z,25.30
2023-08-21T17:25:17.876Z,25.30
2023-08-21T17:27:48.526Z,25.30
2023-08-21T17:30:18.112Z,25.30
2023-08-21T17:32:47.028Z,25.30
2023-08-21T17:35:16.204Z,25.20
2023-08-21T17:37:45.301Z,25.10
2023-08-21T17:40:14.240Z,25.10
2023-08-21T17:42:43.280Z,25.10
2023-08-21T17:45:13.623Z,25.00
2023-08-21T17:47:42.821Z,25.00
2023-08-21T17:50:11.561Z,25.00
2023-08-21T17:52:40.190Z,25.00
2023-08-21T17:55:10.078Z,25.00
2023-08-21T17:57:39.357Z,24.90
2023-08-21T18:00:11.192Z,24.90
2023-08-21T18:02:42.395Z,24.90
2023-08-21T18:05:11.635Z,24.80
2023-08-21T18:07:40.390Z,24.80
2023-08-21T18:10:11.023Z,24.70
2023-08-21T18:12:40.193Z,24.80
2023-08-21T18:15:10.761Z,24.70
2023-08-21T18:17:46.005Z,24.70
2023-08-21T18:20:15.636Z,24.60
2023-08-21T18:22:44.519Z,24.60
2023-08-21T18:25:13.043Z,24.60
2023-08-21T18:27:42.255Z,24.50
2023-08-21T18:30:21.800Z,24.50
2023-08-21T18:32:51.811Z,24.50
2023-08-21T18:35:20.626Z,24.40
2023-08-21T18:37:49.439Z,24.40
2023-08-21T18:40:18.579Z,24.40
2023-08-21T18:42:47.265Z,24.30
2023-08-21T18:45:16.431Z,24.30
2023-08-21T18:47:45.179Z,24.30
2023-08-21T18:50:15.732Z,24.20
2023-08-21T18:52:44.761Z,24.20
2023-08-21T18:55:13.418Z,24.10
2023-08-21T18:57:43.365Z,24.10
2023-08-21T19:00:15.728Z,24.00
2023-08-21T19:02:45.749Z,23.90
2023-08-21T19:05:16.267Z,23.90
2023-08-21T19:07:45.572Z,23.80
2023-08-21T19:10:14.596Z,23.70
2023-08-21T19:12:43.709Z,23.60
2023-08-21T19:15:13.373Z,23.50
2023-08-21T19:17:42.819Z,23.40
2023-08-21T19:20:13.521Z,23.30
2023-08-21T19:22:44.252Z,23.20
2023-08-21T19:25:16.297Z,23.20
2023-08-21T19:27:45.348Z,23.10
2023-08-21T19:30:15.385Z,23.00
2023-08-21T19:32:45.614Z,22.90
2023-08-21T19:35:14.581Z,22.90
2023-08-21T19:37:45.070Z,22.80
2023-08-21T19:40:15.304Z,22.70
2023-08-21T19:42:44.262Z,22.60
2023-08-21T19:45:20.356Z,22.60
2023-08-21T19:47:52.666Z,22.50
2023-08-21T19:50:23.938Z,22.40
2023-08-21T19:52:54.866Z,22.40
2023-08-21T19:55:23.831Z,22.30
2023-08-21T19:57:52.919Z,22.20
2023-08-21T20:00:21.831Z,22.10
2023-08-21T20:02:53.856Z,22.00
2023-08-21T20:05:23.544Z,21.90
2023-08-21T20:07:54.185Z,21.90
2023-08-21T20:10:23.137Z,21.80
2023-08-21T20:12:51.688Z,21.70
2023-08-21T20:15:21.342Z,21.70
2023-08-21T20:17:50.705Z,21.60
2023-08-21T20:20:19.617Z,21.50
2023-08-21T20:22:48.760Z,21.40
2023-08-21T20:25:19.040Z,21.30
2023-08-21T20:27:47.957Z,21.20
2023-08-21T20:30:17.975Z,21.20
2023-08-21T20:32:47.687Z,21.10
2023-08-21T20:35:16.839Z,21.00
2023-08-21T20:37:45.828Z,21.00
2023-08-21T20:40:17.393Z,21.00
2023-08-21T20:42:48.927Z,21.00
2023-08-21T20:45:17.722Z,21.00
2023-08-21T20:47:46.633Z,20.90
2023-08-21T20:50:15.940Z,20.90
2023-08-21T20:52:45.321Z,20.80
2023-08-21T20:55:14.038Z,20.70
2023-08-21T20:57:43.226Z,20.60
2023-08-21T21:00:14.626Z,20.60
2023-08-21T21:02:43.790Z,20.60
2023-08-21T21:05:12.825Z,20.50
2023-08-21T21:07:43.191Z,20.50
2023-08-21T21:10:12.461Z,20.50
2023-08-21T21:12:41.129Z,20.50
2023-08-21T21:15:11.444Z,20.40
2023-08-21T21:17:42.832Z,20.40
2023-08-21T21:20:12.757Z,20.40
2023-08-21T21:22:41.380Z,20.40
2023-08-21T21:25:10.833Z,20.40
2023-08-21T21:27:40.184Z,20.50
2023-08-21T21:30:10.367Z,20.40
2023-08-21T21:32:41.412Z,20.40
2023-08-21T21:35:10.473Z,20.40
2023-08-21T21:37:39.480Z,20.40
2023-08-21T21:40:09.791Z,20.30
2023-08-21T21:42:39.010Z,20.20
2023-08-21T21:45:09.512Z,20.10
2023-08-21T21:47:38.994Z,20.10
2023-08-21T21:50:13.034Z,20.10
2023-08-21T21:52:41.634Z,20.10
2023-08-21T21:55:12.460Z,20.10
2023-08-21T21:57:41.284Z,20.10
2023-08-21T22:00:11.208Z,20.10
2023-08-21T22:02:44.342Z,20.10
2023-08-21T22:05:15.382Z,20.10
2023-08-21T22:07:45.436Z,20.10
2023-08-21T22:10:14.510Z,20.00
2023-08-21T22:12:43.167Z,20.00
2023-08-21T22:15:14.704Z,19.90
2023-08-21T22:17:44.458Z,19.80
2023-08-21T22:20:15.164Z,19.80
2023-08-21T22:22:44.124Z,19.80
2023-08-21T22:25:12.835Z,19.80
2023-08-21T22:27:43.135Z,19.80
2023-08-21T22:30:14.075Z,19.80
2023-08-21T22:32:43.227Z,19.70
2023-08-21T22:35:12.061Z,19.70
2023-08-21T22:37:42.581Z,19.70
2023-08-21T22:40:12.738Z,19.60
2023-08-21T22:42:41.414Z,19.60
2023-08-21T22:45:11.202Z,19.60
2023-08-21T22:47:40.069Z,19.60
2023-08-21T22:50:10.079Z,19.60
2023-08-21T22:52:39.093Z,19.50
2023-08-21T22:55:11.656Z,19.40
2023-08-21T22:57:44.946Z,19.40
2023-08-21T23:00:15.158Z,19.40
2023-08-21T23:02:44.356Z,19.40
2023-08-21T23:05:13.048Z,19.40
2023-08-21T23:07:42.494Z,19.40
2023-08-21T23:10:13.156Z,19.50
2023-08-21T23:12:44.543Z,19.50
2023-08-21T23:15:13.388Z,19.50
2023-08-21T23:17:42.298Z,19.50
2023-08-21T23:20:12.504Z,19.50
2023-08-21T23:22:41.541Z,19.50
2023-08-21T23:25:12.467Z,19.50
2023-08-21T23:27:41.400Z,19.50
2023-08-21T23:30:12.309Z,19.50
2023-08-21T23:32:41.311Z,19.50
2023-08-21T23:35:11.670Z,19.50
2023-08-21T23:37:40.720Z,19.50
2023-08-21T23:40:16.835Z,19.50
2023-08-21T23:42:46.100Z,19.50
2023-08-21T23:45:14.487Z,19.40
2023-08-21T23:47:44.505Z,19.40
2023-08-21T23:50:15.645Z,19.40
2023-08-21T23:52:44.234Z,19.40
2023-08-21T23:55:14.234Z,19.40
2023-08-21T23:57:43.173Z,19.40
